Time;durP1;ratioP1;P1;durP2;ratioP2;P2;SDS_P1;SDS_P2;PMS_P1;PMS_P2;Temp;Humidity;BMP_temperature;BMP_pressure;BME280_temperature;BME280_humidity;BME280_pressure;Samples;Min_cycle;Max_cycle;Signal;HPM_P1;HPM_P2
2022/11/15 00:04:08;;;;;;;;;;;;;;;20.08;42.08;95581.53;10511795;28;2998;-51
2022/11/15 00:09:08;;;;;;;;;;;;;;;20.07;41.97;95574.69;10505654;28;3375;-52
2022/11/15 00:14:08;;;;;;;;;;;;;;;20.02;42.03;95574.75;10510420;28;3200;-52
2022/11/15 00:19:09;;;;;;;;;;;;;;;20.00;42.11;95576.06;10498985;28;3367;-50
2022/11/15 00:24:09;;;;;;;;;;;;;;;19.95;42.04;95565.56;10506730;28;3247;-52
2022/11/15 00:29:09;;;;;;;;;;;;;;;19.94;42.27;95570.06;10513838;28;3341;-53
2022/11/15 00:34:10;;;;;;;;;;;;;;;19.87;42.21;95561.69;10501322;28;2942;-50
2022/11/15 00:39:10;;;;;;;;;;;;;;;19.84;42.20;95566.69;10508706;28;3295;-54
2022/11/15 00:44:14;;;;;;;;;;;;;;;19.83;42.19;95565.13;10501678;28;3220;-50
2022/11/15 00:49:14;;;;;;;;;;;;;;;19.78;42.25;95557.28;10507598;28;3307;-51
2022/11/15 00:54:14;;;;;;;;;;;;;;;19.81;42.00;95554.09;10512714;28;3220;-52
2022/11/15 00:59:14;;;;;;;;;;;;;;;19.78;42.10;95541.50;10517175;28;3263;-51
2022/11/15 01:04:15;;;;;;;;;;;;;;;19.71;42.28;95536.53;10508501;28;3251;-53
2022/11/15 01:09:15;;;;;;;;;;;;;;;19.70;42.18;95532.31;10511416;28;3374;-51
2022/11/15 01:14:15;;;;;;;;;;;;;;;19.70;42.18;95519.16;10508335;28;3274;-50
2022/11/15 01:19:15;;;;;;;;;;;;;;;19.65;42.30;95515.81;10510056;28;3395;-50
2022/11/15 01:24:16;;;;;;;;;;;;;;;19.63;42.29;95507.41;10506147;28;3224;-53
2022/11/15 01:29:16;;;;;;;;;;;;;;;19.64;42.36;95514.25;10508537;28;3412;-50
2022/11/15 01:34:16;;;;;;;;;;;;;;;19.61;42.11;95504.25;10509510;28;3314;-50
2022/11/15 01:39:17;;;;;;;;;;;;;;;19.59;42.30;95498.47;10518584;28;3294;-48
2022/11/15 01:44:40;;;;;;;;;;;;;;;19.57;42.01;95487.47;10512463;28;2947;-51
2022/11/15 01:49:43;;;;;;;;;;;;;;;19.51;42.32;95481.44;10506249;28;2958;-52
2022/11/15 01:54:44;;;;;;;;;;;;;;;19.52;42.14;95482.22;10508577;28;3009;-50
2022/11/15 01:59:44;;;;;;;;;;;;;;;19.50;42.35;95471.97;10509878;28;2989;-51
2022/11/15 02:04:45;;;;;;;;;;;;;;;19.47;42.28;95477.81;10516440;28;2761;-50
2022/11/15 02:09:45;;;;;;;;;;;;;;;19.43;42.45;95474.91;10502726;28;3439;-49
2022/11/15 02:14:53;;;;;;;;;;;;;;;19.43;42.44;95464.41;10499000;28;2974;-49
2022/11/15 02:20:04;;;;;;;;;;;;;;;19.40;42.42;95462.34;10513434;28;2947;-51
2022/11/15 02:25:24;;;;;;;;;;;;;;;19.42;42.26;95459.41;10498504;28;3061;-47
2022/11/15 02:30:26;;;;;;;;;;;;;;;19.39;42.10;95463.38;10501431;28;2951;-52
2022/11/15 02:35:48;;;;;;;;;;;;;;;19.38;42.34;95461.03;10503964;28;3020;-52
2022/11/15 02:40:53;;;;;;;;;;;;;;;19.36;42.31;95461.31;10510756;28;3065;-48
2022/11/15 02:46:19;;;;;;;;;;;;;;;19.31;42.11;95456.03;10505467;28;3549;-52
2022/11/15 02:51:20;;;;;;;;;;;;;;;19.32;42.15;95441.84;10503927;28;2965;-51
2022/11/15 02:56:20;;;;;;;;;;;;;;;19.32;42.14;95449.75;10505732;28;3074;-53
2022/11/15 03:01:30;;;;;;;;;;;;;;;19.31;42.36;95452.63;10515023;28;3058;-52
2022/11/15 03:06:39;;;;;;;;;;;;;;;19.31;42.08;95442.91;10511406;28;3423;-52
2022/11/15 03:11:41;;;;;;;;;;;;;;;19.31;42.09;95429.75;10503181;28;3094;-52
2022/11/15 03:16:50;;;;;;;;;;;;;;;19.23;42.16;95414.56;10513645;28;2974;-50
2022/11/15 03:21:50;;;;;;;;;;;;;;;19.23;42.21;95422.44;10500251;28;3058;-49
2022/11/15 03:26:51;;;;;;;;;;;;;;;19.19;42.29;95416.16;10507117;28;3147;-51
2022/11/15 03:31:54;;;;;;;;;;;;;;;19.20;42.22;95409.88;10500072;28;2715;-51
2022/11/15 03:36:54;;;;;;;;;;;;;;;19.19;42.23;95405.66;10535623;27;2952;-51
2022/11/15 03:41:57;;;;;;;;;;;;;;;19.18;42.22;95396.22;10502004;28;2966;-50
2022/11/15 03:46:57;;;;;;;;;;;;;;;19.20;42.18;95398.56;10508047;28;2962;-51
2022/11/15 03:51:58;;;;;;;;;;;;;;;19.22;42.04;95402.50;10500159;28;2919;-50
2022/11/15 03:56:58;;;;;;;;;;;;;;;19.16;41.93;95398.34;10504101;28;3054;-52
2022/11/15 04:01:58;;;;;;;;;;;;;;;19.14;42.09;95397.81;10515396;28;3009;-51
2022/11/15 04:06:59;;;;;;;;;;;;;;;19.11;42.12;95387.84;10505449;28;3009;-50
2022/11/15 04:11:59;;;;;;;;;;;;;;;19.07;42.23;95384.19;10499978;28;3094;-52
2022/11/15 04:17:00;;;;;;;;;;;;;;;19.07;42.07;95378.94;10505147;28;2965;-54
2022/11/15 04:27:19;;;;;;;;;;;;;;;19.03;42.26;95369.25;10502264;28;3033;-51
2022/11/15 04:32:19;;;;;;;;;;;;;;;19.03;42.12;95369.25;10500306;28;3038;-48
2022/11/15 04:37:19;;;;;;;;;;;;;;;19.02;42.11;95362.44;10497286;28;2819;-51
2022/11/15 04:42:24;;;;;;;;;;;;;;;18.99;42.13;95355.88;10508657;28;3434;-52
2022/11/15 04:47:24;;;;;;;;;;;;;;;19.00;41.86;95365.31;10502701;28;3010;-51
2022/11/15 04:52:25;;;;;;;;;;;;;;;18.97;42.01;95360.63;10507199;28;2970;-51
2022/11/15 04:57:25;;;;;;;;;;;;;;;18.97;41.94;95363.25;10511243;28;3030;-52
2022/11/15 05:04:18;;;;;;;;;;;;;;;19.02;41.84;95360.56;10500217;28;3109;-51
2022/11/15 05:07:45;;;;;;;;;;;;;;;19.07;41.99;95357.13;10498419;28;3093;-51
2022/11/15 05:12:46;;;;;;;;;;;;;;;19.14;41.79;95342.66;10513104;28;2964;-53
2022/11/15 05:17:46;;;;;;;;;;;;;;;19.22;41.87;95339.44;10506375;28;3057;-52
2022/11/15 05:22:46;;;;;;;;;;;;;;;19.28;41.83;95340.19;10514003;28;3019;-52
2022/11/15 05:27:47;;;;;;;;;;;;;;;19.31;41.67;95326.47;10510662;28;2967;-54
2022/11/15 05:32:47;;;;;;;;;;;;;;;19.35;41.37;95317.81;10510859;28;3033;-51
2022/11/15 05:37:47;;;;;;;;;;;;;;;19.36;40.39;95310.69;10508069;28;3060;-51
2022/11/15 05:42:47;;;;;;;;;;;;;;;19.36;40.67;95311.50;10513721;28;2993;-52
2022/11/15 05:47:48;;;;;;;;;;;;;;;19.39;39.57;95308.31;10521547;28;3010;-50
2022/11/15 05:52:48;;;;;;;;;;;;;;;19.40;39.75;95312.50;10511851;28;3089;-54
2022/11/15 05:57:48;;;;;;;;;;;;;;;19.45;39.48;95312.44;10502425;28;3145;-53
2022/11/15 06:02:49;;;;;;;;;;;;;;;19.49;39.77;95304.81;10504127;28;3020;-51
2022/11/15 06:07:49;;;;;;;;;;;;;;;19.54;39.08;95301.38;10497801;28;2989;-51
2022/11/15 06:13:00;;;;;;;;;;;;;;;19.56;39.79;95286.09;10504305;28;2982;-51
2022/11/15 06:18:00;;;;;;;;;;;;;;;19.62;39.83;95292.88;10510477;28;3005;-51
2022/11/15 06:23:01;;;;;;;;;;;;;;;19.60;38.71;95298.38;10502114;28;2989;-51
2022/11/15 06:28:02;;;;;;;;;;;;;;;19.61;38.98;95294.72;10507143;28;2657;-52
2022/11/15 06:33:02;;;;;;;;;;;;;;;19.63;39.07;95289.16;10507836;28;2982;-50
2022/11/15 06:38:04;;;;;;;;;;;;;;;19.65;38.65;95293.09;10508071;28;3144;-54
2022/11/15 06:43:04;;;;;;;;;;;;;;;19.68;38.97;95310.94;10500279;28;2973;-51
2022/11/15 06:48:05;;;;;;;;;;;;;;;19.72;38.80;95311.19;10516569;28;3006;-51
2022/11/15 06:53:05;;;;;;;;;;;;;;;19.76;39.34;95302.47;10504862;28;3076;-52
2022/11/15 06:58:05;;;;;;;;;;;;;;;19.78;39.52;95295.06;10507468;28;2948;-52
2022/11/15 07:03:05;;;;;;;;;;;;;;;19.79;38.31;95307.16;10508191;28;2939;-48
2022/11/15 07:08:06;;;;;;;;;;;;;;;19.79;38.97;95306.34;10507644;28;3009;-52
2022/11/15 07:13:06;;;;;;;;;;;;;;;19.91;39.72;95312.00;10494663;28;3005;-52
2022/11/15 07:18:06;;;;;;;;;;;;;;;19.93;39.83;95304.63;10497880;28;3082;-55
2022/11/15 07:23:07;;;;;;;;;;;;;;;19.89;38.76;95308.88;10491259;28;3020;-53
2022/11/15 07:28:07;;;;;;;;;;;;;;;19.89;38.74;95308.88;10482026;28;2957;-50
2022/11/15 07:33:07;;;;;;;;;;;;;;;19.91;39.02;95304.13;10490291;28;3037;-51
2022/11/15 07:38:07;;;;;;;;;;;;;;;19.94;38.35;95304.38;10481470;28;3096;-49
2022/11/15 07:43:08;;;;;;;;;;;;;;;19.96;37.80;95301.44;10487993;28;3125;-53
2022/11/15 07:48:08;;;;;;;;;;;;;;;19.98;37.93;95305.38;10493584;28;3060;-50
2022/11/15 07:53:09;;;;;;;;;;;;;;;19.99;38.33;95291.13;10489551;28;2972;-50
2022/11/15 07:58:09;;;;;;;;;;;;;;;20.04;38.37;95295.56;10486247;28;2958;-52
2022/11/15 08:03:10;;;;;;;;;;;;;;;20.06;37.87;95296.06;10482127;28;2974;-51
2022/11/15 08:08:11;;;;;;;;;;;;;;;20.14;39.29;95287.56;10488765;28;2887;-52
2022/11/15 08:13:16;;;;;;;;;;;;;;;20.24;40.60;95276.94;10488091;28;3028;-52
2022/11/15 08:18:16;;;;;;;;;;;;;;;20.28;40.45;95276.09;10482144;28;2957;-47
2022/11/15 08:23:16;;;;;;;;;;;;;;;20.30;40.11;95260.00;10490642;28;3025;-52
2022/11/15 08:28:17;;;;;;;;;;;;;;;20.30;40.64;95251.34;10490418;28;2767;-49
2022/11/15 08:33:17;;;;;;;;;;;;;;;20.33;40.60;95238.38;10490590;28;3605;-52
2022/11/15 08:38:17;;;;;;;;;;;;;;;20.34;40.89;95226.78;10494956;28;2799;-52
2022/11/15 08:43:18;;;;;;;;;;;;;;;20.37;40.89;95230.69;10488500;28;2994;-52
2022/11/15 08:48:18;;;;;;;;;;;;;;;20.31;40.72;95231.84;10497861;28;3013;-50
2022/11/15 08:53:19;;;;;;;;;;;;;;;20.32;40.88;95231.56;10497497;28;2987;-51
2022/11/15 08:58:19;;;;;;;;;;;;;;;20.28;40.95;95239.25;10510103;28;3025;-50
2022/11/15 09:03:19;;;;;;;;;;;;;;;20.28;41.27;95241.09;10495977;28;3013;-51
2022/11/15 09:08:23;;;;;;;;;;;;;;;20.30;41.09;95244.22;10515974;28;2963;-51
2022/11/15 09:13:23;;;;;;;;;;;;;;;20.31;40.79;95230.00;10495342;28;3078;-51
2022/11/15 09:18:23;;;;;;;;;;;;;;;20.31;41.05;95219.47;10493016;28;3029;-48
2022/11/15 09:23:24;;;;;;;;;;;;;;;20.30;41.12;95219.75;10508574;28;2958;-52
2022/11/15 09:28:25;;;;;;;;;;;;;;;20.30;40.87;95211.88;10514175;28;3004;-49
2022/11/15 09:33:25;;;;;;;;;;;;;;;20.24;41.26;95208.50;10489839;28;3347;-50
2022/11/15 09:38:26;;;;;;;;;;;;;;;20.21;41.21;95203.81;10487673;28;2887;-50
2022/11/15 09:43:36;;;;;;;;;;;;;;;20.24;41.11;95197.97;10496558;28;3124;-47
2022/11/15 09:48:49;;;;;;;;;;;;;;;20.13;41.19;95186.75;10496850;28;3015;-52
2022/11/15 09:53:52;;;;;;;;;;;;;;;20.12;41.24;95179.16;10505583;28;3085;-50
2022/11/15 09:59:01;;;;;;;;;;;;;;;20.07;41.11;95164.22;10505008;28;2989;-54
2022/11/15 10:04:02;;;;;;;;;;;;;;;20.05;41.16;95158.47;10507101;28;3014;-49
2022/11/15 10:09:11;;;;;;;;;;;;;;;20.07;41.19;95160.84;10500691;28;3017;-49
2022/11/15 10:14:21;;;;;;;;;;;;;;;20.03;41.17;95150.06;10498766;28;3040;-52
2022/11/15 10:19:28;;;;;;;;;;;;;;;20.01;41.29;95143.56;10509942;28;2922;-48
2022/11/15 10:24:29;;;;;;;;;;;;;;;19.99;41.26;95138.56;10497738;28;3049;-51
2022/11/15 10:29:29;;;;;;;;;;;;;;;19.94;41.56;95129.97;10503329;28;2974;-50
2022/11/15 10:34:34;;;;;;;;;;;;;;;19.94;41.55;95122.06;10490018;28;2991;-52
2022/11/15 10:39:35;;;;;;;;;;;;;;;19.96;41.47;95114.69;10504160;28;3034;-51
2022/11/15 10:44:41;;;;;;;;;;;;;;;19.93;41.36;95094.19;10507563;28;2990;-53
2022/11/15 10:49:52;;;;;;;;;;;;;;;19.93;41.40;95094.19;10505819;28;3128;-53
2022/11/15 10:54:56;;;;;;;;;;;;;;;19.92;41.48;95095.25;10496753;28;2789;-54
2022/11/15 11:00:07;;;;;;;;;;;;;;;19.90;41.69;95077.16;10501564;28;3044;-54
2022/11/15 11:05:26;;;;;;;;;;;;;;;19.90;41.57;95068.47;10506587;28;3038;-53
2022/11/15 11:10:26;;;;;;;;;;;;;;;19.90;41.65;95068.47;10499388;28;2989;-51
2022/11/15 11:15:27;;;;;;;;;;;;;;;19.93;41.85;95057.34;10499622;28;3029;-52
2022/11/15 11:20:37;;;;;;;;;;;;;;;19.90;42.33;95050.06;10488517;28;2821;-52
2022/11/15 11:25:46;;;;;;;;;;;;;;;19.90;42.27;95040.31;10497953;28;2993;-53
2022/11/15 11:31:05;;;;;;;;;;;;;;;19.91;42.63;95038.44;10502079;28;3029;-49
2022/11/15 11:36:15;;;;;;;;;;;;;;;19.95;42.95;95031.56;10499976;28;2954;-54
2022/11/15 11:41:18;;;;;;;;;;;;;;;19.96;42.93;95027.88;10487610;28;2958;-50
2022/11/15 11:46:41;;;;;;;;;;;;;;;19.94;43.16;95022.09;10498723;28;2962;-55
2022/11/15 11:51:44;;;;;;;;;;;;;;;19.93;43.28;95013.44;10491910;28;2961;-52
2022/11/15 11:56:44;;;;;;;;;;;;;;;19.96;43.29;95006.81;10494125;28;3029;-52
2022/11/15 12:01:44;;;;;;;;;;;;;;;19.94;43.12;94999.22;10495438;28;2943;-53
2022/11/15 12:06:46;;;;;;;;;;;;;;;19.92;42.76;94998.72;10488338;28;2954;-52
2022/11/15 12:11:49;;;;;;;;;;;;;;;19.94;43.09;94985.28;10484427;28;3034;-52
2022/11/15 12:16:50;;;;;;;;;;;;;;;19.95;42.93;94984.19;10488816;28;2986;-51
2022/11/15 12:21:53;;;;;;;;;;;;;;;19.97;42.73;94984.72;10499093;28;2720;-53
2022/11/15 12:27:13;;;;;;;;;;;;;;;19.97;42.89;94976.84;10493070;28;2982;-54
2022/11/15 12:32:17;;;;;;;;;;;;;;;19.96;42.67;94964.72;10508956;28;2699;-50
2022/11/15 12:37:33;;;;;;;;;;;;;;;19.94;42.71;94965.03;10477771;28;3033;-50
2022/11/15 12:42:34;;;;;;;;;;;;;;;19.96;42.99;94962.09;10494238;28;2918;-49
2022/11/15 12:47:34;;;;;;;;;;;;;;;19.97;42.89;94963.69;10502226;28;2982;-52
2022/11/15 12:52:35;;;;;;;;;;;;;;;20.01;42.49;94964.66;10506023;28;2970;-54
2022/11/15 12:57:36;;;;;;;;;;;;;;;20.20;42.23;94954.88;10500998;28;3063;-52
2022/11/15 13:02:40;;;;;;;;;;;;;;;20.59;41.57;94955.22;10504908;28;2693;-51
2022/11/15 13:07:43;;;;;;;;;;;;;;;20.86;41.44;94952.59;10507348;28;2985;-50
2022/11/15 13:12:43;;;;;;;;;;;;;;;20.70;41.56;94943.44;10495263;28;3097;-53
2022/11/15 13:17:47;;;;;;;;;;;;;;;20.52;42.15;94941.69;10504003;28;2985;-54
2022/11/15 13:22:50;;;;;;;;;;;;;;;20.41;42.55;94939.50;10501652;28;2966;-50
2022/11/15 13:27:50;;;;;;;;;;;;;;;20.39;42.60;94942.44;10492970;28;3012;-55
2022/11/15 13:32:51;;;;;;;;;;;;;;;20.33;42.71;94942.81;10498818;28;2665;-53
2022/11/15 13:37:51;;;;;;;;;;;;;;;20.35;42.69;94941.47;10502819;28;3029;-53
2022/11/15 13:42:52;;;;;;;;;;;;;;;20.48;42.43;94937.28;10504991;28;2978;-52
2022/11/15 13:47:53;;;;;;;;;;;;;;;20.50;42.13;94935.13;10483016;28;2908;-52
2022/11/15 13:52:55;;;;;;;;;;;;;;;20.36;42.91;94929.84;10505769;28;3100;-55
2022/11/15 13:57:59;;;;;;;;;;;;;;;20.27;43.07;94926.34;10524774;28;2781;-53
2022/11/15 14:03:26;;;;;;;;;;;;;;;20.18;43.30;94928.03;10522419;28;3006;-52
2022/11/15 14:08:26;;;;;;;;;;;;;;;20.09;43.36;94929.81;10530162;27;3010;-52
2022/11/15 14:13:27;;;;;;;;;;;;;;;20.01;43.74;94938.34;10504016;28;3050;-50
2022/11/15 14:18:41;;;;;;;;;;;;;;;19.95;43.63;94934.22;10484520;28;2945;-51
2022/11/15 14:23:41;;;;;;;;;;;;;;;19.91;43.66;94931.41;10498720;28;3058;-54
2022/11/15 14:28:42;;;;;;;;;;;;;;;19.88;43.85;94937.25;10545994;27;2728;-54
2022/11/15 14:33:42;;;;;;;;;;;;;;;19.87;44.00;94932.25;10508707;28;3076;-54
2022/11/15 14:38:42;;;;;;;;;;;;;;;19.90;43.79;94939.59;10504625;28;2958;-53
2022/11/15 14:43:43;;;;;;;;;;;;;;;20.00;43.86;94939.41;10501141;28;3022;-53
2022/11/15 14:48:43;;;;;;;;;;;;;;;20.04;43.50;94932.50;10495307;28;2908;-52
2022/11/15 14:53:43;;;;;;;;;;;;;;;20.12;43.26;94940.50;10504039;28;3244;-51
2022/11/15 14:58:44;;;;;;;;;;;;;;;20.20;43.12;94931.19;10499380;28;3305;-52
2022/11/15 15:03:44;;;;;;;;;;;;;;;20.26;43.14;94919.50;10491430;28;2923;-54
2022/11/15 15:08:45;;;;;;;;;;;;;;;20.36;42.92;94926.44;10501103;28;2943;-52
2022/11/15 15:13:46;;;;;;;;;;;;;;;20.39;43.08;94920.59;10491470;28;2988;-52
2022/11/15 15:18:46;;;;;;;;;;;;;;;20.42;42.76;94922.66;10513063;28;2951;-49
2022/11/15 15:23:46;;;;;;;;;;;;;;;20.44;42.61;94917.88;10505457;28;2980;-50
2022/11/15 15:28:48;;;;;;;;;;;;;;;20.47;42.71;94918.06;10510836;28;2994;-52
2022/11/15 15:33:48;;;;;;;;;;;;;;;20.47;42.76;94923.31;10504329;28;3423;-52
2022/11/15 15:38:49;;;;;;;;;;;;;;;20.51;42.73;94924.31;10502860;28;2764;-51
2022/11/15 15:43:49;;;;;;;;;;;;;;;20.52;42.33;94930.34;10493929;28;2712;-54
2022/11/15 15:48:49;;;;;;;;;;;;;;;20.55;41.88;94927.91;10512548;28;3113;-52
2022/11/15 15:53:51;;;;;;;;;;;;;;;20.59;41.91;94926.25;10496830;28;3259;-54
2022/11/15 15:58:55;;;;;;;;;;;;;;;20.63;42.05;94929.09;10497887;28;3001;-50
2022/11/15 16:03:55;;;;;;;;;;;;;;;20.65;41.95;94921.69;10504432;28;2653;-51
2022/11/15 16:08:56;;;;;;;;;;;;;;;20.66;41.48;94921.38;10499917;28;3010;-51
2022/11/15 16:13:56;;;;;;;;;;;;;;;20.68;41.52;94903.44;10504940;28;2970;-50
2022/11/15 16:18:56;;;;;;;;;;;;;;;20.69;41.04;94891.06;10502469;28;3072;-49
2022/11/15 16:23:56;;;;;;;;;;;;;;;20.71;41.34;94875.75;10502797;28;2692;-53
2022/11/15 16:28:57;;;;;;;;;;;;;;;20.73;41.01;94874.34;10517022;28;3148;-52
2022/11/15 16:33:57;;;;;;;;;;;;;;;20.78;41.78;94874.25;10511638;28;3002;-53
2022/11/15 16:38:58;;;;;;;;;;;;;;;20.78;40.56;94869.00;10503025;28;3013;-52
2022/11/15 16:43:58;;;;;;;;;;;;;;;20.82;40.49;94866.53;10501396;28;3033;-51
2022/11/15 16:48:58;;;;;;;;;;;;;;;20.84;41.64;94862.53;10497366;28;3019;-52
2022/11/15 16:53:59;;;;;;;;;;;;;;;20.91;41.81;94860.28;10505297;28;3006;-52
2022/11/15 16:58:59;;;;;;;;;;;;;;;20.89;41.26;94859.81;10500518;28;3033;-50
2022/11/15 17:04:11;;;;;;;;;;;;;;;20.88;40.56;94855.59;10512172;28;2965;-50
2022/11/15 17:09:13;;;;;;;;;;;;;;;20.89;40.54;94840.59;10521590;28;3088;-51
2022/11/15 17:14:13;;;;;;;;;;;;;;;20.89;41.35;94837.94;10516520;28;2985;-52
2022/11/15 17:19:14;;;;;;;;;;;;;;;20.90;39.98;94836.84;10519752;28;2974;-52
2022/11/15 17:24:14;;;;;;;;;;;;;;;20.89;40.52;94840.59;10512138;28;2935;-49
2022/11/15 17:29:14;;;;;;;;;;;;;;;20.95;40.24;94831.50;10532115;27;3009;-53
2022/11/15 17:34:14;;;;;;;;;;;;;;;21.04;41.62;94833.13;10507050;28;2990;-53
2022/11/15 17:39:15;;;;;;;;;;;;;;;21.03;41.06;94831.59;10508213;28;3104;-50
2022/11/15 17:44:15;;;;;;;;;;;;;;;21.01;40.90;94831.09;10510138;28;3070;-52
2022/11/15 17:49:15;;;;;;;;;;;;;;;20.98;39.93;94815.84;10507642;28;3041;-47
2022/11/15 17:54:15;;;;;;;;;;;;;;;21.02;40.30;94822.13;10515273;28;2768;-50
2022/11/15 17:59:16;;;;;;;;;;;;;;;21.01;40.76;94828.44;10512916;28;2963;-52
2022/11/15 18:04:16;;;;;;;;;;;;;;;21.02;40.51;94811.56;10510247;28;2951;-49
2022/11/15 18:09:17;;;;;;;;;;;;;;;21.08;40.54;94808.84;10510051;28;3026;-48
2022/11/15 18:14:17;;;;;;;;;;;;;;;21.06;40.76;94794.09;10509004;28;3009;-53
2022/11/15 18:19:18;;;;;;;;;;;;;;;21.08;41.30;94790.41;10502081;28;2905;-50
2022/11/15 18:24:18;;;;;;;;;;;;;;;21.12;41.47;94792.13;10503169;28;3069;-50
2022/11/15 18:29:18;;;;;;;;;;;;;;;21.13;41.36;94792.91;10514959;28;3082;-51
2022/11/15 18:34:19;;;;;;;;;;;;;;;21.17;41.38;94793.84;10514265;28;3006;-50
2022/11/15 18:39:19;;;;;;;;;;;;;;;21.16;41.79;94784.41;10502314;28;2961;-52
2022/11/15 18:44:19;;;;;;;;;;;;;;;21.18;41.85;94790.16;10502475;28;3016;-50
2022/11/15 18:49:19;;;;;;;;;;;;;;;21.14;42.11;94765.47;10511187;28;3076;-49
2022/11/15 18:54:20;;;;;;;;;;;;;;;21.13;42.16;94771.81;10510164;28;3076;-51
2022/11/15 18:59:20;;;;;;;;;;;;;;;21.10;42.34;94764.53;10508302;28;3028;-48
2022/11/15 19:04:21;;;;;;;;;;;;;;;21.08;42.61;94764.03;10508295;28;3123;-48
2022/11/15 19:09:26;;;;;;;;;;;;;;;21.08;42.77;94753.50;10515513;28;3303;-48
2022/11/15 19:14:27;;;;;;;;;;;;;;;21.04;42.72;94748.06;10512226;28;3005;-53
2022/11/15 19:19:27;;;;;;;;;;;;;;;21.03;43.16;94739.38;10502655;28;2666;-50
2022/11/15 19:24:29;;;;;;;;;;;;;;;21.00;42.99;94739.94;10502472;28;2771;-50
2022/11/15 19:29:33;;;;;;;;;;;;;;;20.98;43.29;94739.44;10509394;28;2955;-52
2022/11/15 19:34:34;;;;;;;;;;;;;;;20.92;43.54;94731.97;10509511;28;3025;-47
2022/11/15 19:39:34;;;;;;;;;;;;;;;20.89;43.98;94725.47;10511885;28;3025;-50
2022/11/15 19:44:35;;;;;;;;;;;;;;;20.85;44.33;94736.88;10511616;28;2985;-52
2022/11/15 19:49:35;;;;;;;;;;;;;;;20.85;44.77;94727.13;10509778;28;3128;-48
2022/11/15 19:54:35;;;;;;;;;;;;;;;20.79;45.25;94720.41;10505737;28;3004;-50
2022/11/15 19:59:36;;;;;;;;;;;;;;;20.76;45.38;94722.88;10511329;28;3097;-50
2022/11/15 20:04:38;;;;;;;;;;;;;;;20.73;45.38;94713.69;10503214;28;2969;-54
2022/11/15 20:09:38;;;;;;;;;;;;;;;20.71;45.44;94717.72;10503394;28;3025;-52
2022/11/15 20:14:38;;;;;;;;;;;;;;;20.69;45.69;94712.75;10500291;28;3231;-50
2022/11/15 20:19:39;;;;;;;;;;;;;;;20.64;45.68;94702.34;10502065;28;2961;-48
2022/11/15 20:24:39;;;;;;;;;;;;;;;20.62;45.38;94703.72;10505199;28;2705;-51
2022/11/15 20:29:39;;;;;;;;;;;;;;;20.58;45.55;94685.13;10508844;28;2971;-50
2022/11/15 20:34:40;;;;;;;;;;;;;;;20.61;45.73;94681.13;10494785;28;3006;-49
2022/11/15 20:39:40;;;;;;;;;;;;;;;20.58;45.69;94682.47;10505766;28;2985;-52
2022/11/15 20:44:40;;;;;;;;;;;;;;;20.57;45.71;94674.84;10511256;28;2945;-53
2022/11/15 20:49:40;;;;;;;;;;;;;;;20.54;45.67;94671.00;10518852;28;3061;-50
2022/11/15 20:54:41;;;;;;;;;;;;;;;20.55;45.77;94674.38;10514497;28;2998;-48
2022/11/15 20:59:41;;;;;;;;;;;;;;;20.53;45.63;94661.53;10509701;28;2667;-51
2022/11/15 21:04:41;;;;;;;;;;;;;;;20.53;45.44;94653.63;10507787;28;3010;-51
2022/11/15 21:15:04;;;;;;;;;;;;;;;20.42;45.99;94635.75;10507399;28;2744;-50
2022/11/15 21:20:05;;;;;;;;;;;;;;;20.41;45.42;94632.31;10507728;28;2983;-48
2022/11/15 21:25:06;;;;;;;;;;;;;;;20.37;45.54;94622.69;10483974;28;2989;-50
2022/11/15 21:30:06;;;;;;;;;;;;;;;20.35;45.39;94603.78;10515099;28;3331;-48
2022/11/15 21:35:07;;;;;;;;;;;;;;;20.34;45.32;94607.50;10507249;28;3066;-50
2022/11/15 21:40:07;;;;;;;;;;;;;;;20.28;45.11;94591.81;10510002;28;3068;-54
2022/11/15 21:45:14;;;;;;;;;;;;;;;20.30;45.34;94591.53;10506459;28;2966;-52
2022/11/15 21:50:14;;;;;;;;;;;;;;;20.23;45.14;94578.00;10510878;28;2970;-51
2022/11/15 21:55:14;;;;;;;;;;;;;;;20.22;45.13;94568.56;10507184;28;2970;-50
2022/11/15 22:05:34;;;;;;;;;;;;;;;20.20;45.15;94565.44;10505827;28;2994;-50
2022/11/15 22:10:34;;;;;;;;;;;;;;;20.14;45.18;94562.13;10515732;28;2911;-48
2022/11/15 22:15:34;;;;;;;;;;;;;;;20.11;45.10;94544.31;10501104;28;2989;-49
2022/11/15 22:20:35;;;;;;;;;;;;;;;20.11;45.19;94539.03;10508347;28;3109;-49
2022/11/15 22:25:35;;;;;;;;;;;;;;;20.08;45.03;94531.75;10510078;28;2971;-49
2022/11/15 22:30:35;;;;;;;;;;;;;;;20.08;44.75;94520.47;10502440;28;2951;-49
2022/11/15 22:35:37;;;;;;;;;;;;;;;20.04;44.83;94524.75;10507945;28;2981;-48
2022/11/15 22:40:37;;;;;;;;;;;;;;;20.04;45.04;94522.91;10501483;28;3101;-49
2022/11/15 22:45:45;;;;;;;;;;;;;;;20.04;45.03;94535.28;10505602;28;3296;-48
2022/11/15 22:50:45;;;;;;;;;;;;;;;20.02;45.06;94535.59;10507647;28;2935;-50
2022/11/15 22:55:49;;;;;;;;;;;;;;;19.96;45.00;94539.41;10509160;28;3072;-47
2022/11/15 23:00:50;;;;;;;;;;;;;;;19.95;44.94;94521.28;10509018;28;2966;-49
2022/11/15 23:05:50;;;;;;;;;;;;;;;19.99;44.90;94519.63;10501982;28;3069;-47
2022/11/15 23:16:21;;;;;;;;;;;;;;;19.93;44.92;94512.91;10513808;28;3145;-52
2022/11/15 23:26:58;;;;;;;;;;;;;;;19.90;44.82;94501.16;10515811;28;2978;-50
2022/11/15 23:37:17;;;;;;;;;;;;;;;19.88;44.77;94495.41;10495446;28;3030;-48
2022/11/15 23:42:18;;;;;;;;;;;;;;;19.85;44.58;94484.69;10505312;28;3192;-49
2022/11/15 23:47:18;;;;;;;;;;;;;;;19.85;44.75;94463.66;10514418;28;2983;-47
2022/11/15 23:52:19;;;;;;;;;;;;;;;19.85;44.55;94443.41;10508346;28;3074;-50
2022/11/15 23:57:19;;;;;;;;;;;;;;;19.81;44.87;94433.78;10504541;28;3148;-50
